createdAt,value
2022-09-02T15:50:08.795Z,69.09179688
2022-09-02T15:51:09.677Z,69.18945313
2022-09-02T15:52:10.168Z,69.18945313
2022-09-02T15:53:10.560Z,69.29321289
2022-09-02T15:54:10.999Z,69.29321289
2022-09-02T15:55:12.198Z,69.29321289
2022-09-02T15:56:12.604Z,69.39086914
2022-09-02T15:57:13.062Z,69.39086914
2022-09-02T15:58:13.480Z,69.39086914
2022-09-02T15:59:13.922Z,69.49462891
2022-09-02T16:00:14.321Z,69.39086914
2022-09-02T16:01:14.770Z,69.49462891
2022-09-02T16:02:15.231Z,69.79370117
2022-09-02T16:03:46.090Z,69.98901367
2022-09-02T16:04:46.515Z,70.19042969
2022-09-02T16:05:46.950Z,70.3918457
2022-09-02T16:06:47.364Z,70.98999023
2022-09-02T16:07:47.797Z,70.98999023
2022-09-02T16:08:48.205Z,71.09375
2022-09-02T16:09:48.673Z,71.22802734
2022-09-02T16:10:49.085Z,71.42333984
2022-09-02T16:11:49.524Z,71.82617188
2022-09-02T16:12:49.976Z,71.52709961
2022-09-02T16:13:50.408Z,71.42333984
2022-09-02T16:14:51.508Z,71.42333984
2022-09-02T16:15:52.030Z,71.32568359
2022-09-02T16:16:52.568Z,71.52709961
2022-09-02T16:17:52.964Z,71.52709961
2022-09-02T16:18:53.409Z,71.32568359
2022-09-02T16:19:53.847Z,71.32568359
2022-09-02T16:20:55.035Z,71.12426758
2022-09-02T16:21:55.401Z,71.32568359
2022-09-02T16:22:55.836Z,71.32568359
2022-09-02T16:23:56.223Z,71.32568359
2022-09-02T16:24:57.495Z,71.22802734
2022-09-02T16:25:57.942Z,71.22802734
2022-09-02T16:26:58.340Z,71.32568359
2022-09-02T16:27:58.789Z,71.32568359
2022-09-02T16:28:59.203Z,71.42333984
2022-09-02T16:29:59.673Z,71.42333984
2022-09-02T16:31:00.145Z,71.42333984
2022-09-02T16:32:27.259Z,71.42333984
2022-09-02T16:33:01.021Z,71.42333984
2022-09-02T16:34:01.479Z,71.42333984
2022-09-02T16:35:02.494Z,71.32568359
2022-09-02T16:36:02.919Z,71.32568359
2022-09-02T16:37:03.296Z,71.22802734
2022-09-02T16:38:03.754Z,71.22802734
2022-09-02T16:39:04.732Z,71.22802734
2022-09-02T16:40:05.213Z,71.12426758
2022-09-02T16:41:05.599Z,71.12426758
2022-09-02T16:42:05.969Z,71.22802734
2022-09-02T16:43:06.361Z,71.02661133
2022-09-02T16:44:06.757Z,70.92285156
2022-09-02T16:45:07.987Z,70.72753906
2022-09-02T16:46:08.428Z,70.6237793
2022-09-02T16:47:08.775Z,70.72753906
2022-09-02T16:48:09.172Z,70.82519531
2022-09-02T16:49:09.656Z,71.12426758
2022-09-02T16:50:10.106Z,71.22802734
2022-09-02T16:51:11.510Z,71.02661133
2022-09-02T16:52:11.879Z,70.92285156
2022-09-02T16:53:12.344Z,70.82519531
2022-09-02T16:54:17.716Z,70.82519531
2022-09-02T16:55:14.023Z,70.82519531
2022-09-02T16:56:14.433Z,70.4284668
2022-09-02T16:57:45.400Z,70.22705078
2022-09-02T16:58:45.859Z,70.32470703
2022-09-02T16:59:46.390Z,70.22705078
2022-09-02T17:00:46.804Z,70.22705078
2022-09-02T17:01:47.317Z,70.02563477
2022-09-02T17:02:47.774Z,70.02563477
2022-09-02T17:03:48.719Z,69.92797852
2022-09-02T17:04:49.118Z,69.82421875
2022-09-02T17:05:50.205Z,69.92797852
2022-09-02T17:06:50.626Z,69.92797852
2022-09-02T17:07:51.826Z,69.92797852
2022-09-02T17:08:52.351Z,69.52514648
2022-09-02T17:09:52.766Z,69.42749023
2022-09-02T17:10:53.176Z,69.42749023
2022-09-02T17:11:54.415Z,69.12231445
2022-09-02T17:12:54.023Z,69.12231445
2022-09-02T17:13:54.469Z,69.12231445
2022-09-02T17:14:54.893Z,69.0246582
2022-09-02T17:15:55.284Z,68.92700195
2022-09-02T17:16:55.845Z,68.92700195
2022-09-02T17:17:56.180Z,68.92700195
2022-09-02T17:18:56.627Z,68.92700195
2022-09-02T17:19:57.037Z,68.92700195
2022-09-02T17:20:58.033Z,68.92700195
2022-09-02T17:21:58.574Z,68.82324219
2022-09-02T17:22:58.933Z,68.82324219
2022-09-02T17:23:59.366Z,68.92700195
2022-09-02T17:24:59.783Z,68.89038086
2022-09-02T17:26:00.730Z,68.79272461
2022-09-02T17:27:01.255Z,68.79272461
2022-09-02T17:28:01.626Z,68.68896484
2022-09-02T17:29:02.081Z,68.68896484
2022-09-02T17:30:02.471Z,68.59130859
2022-09-02T17:31:02.964Z,68.29223633
2022-09-02T17:32:03.322Z,67.08984375
2022-09-02T17:33:04.515Z,66.69311523
2022-09-02T17:34:04.971Z,66.19262695
2022-09-02T17:35:05.365Z,64.99023438
2022-09-02T17:36:06.706Z,64.59350586
2022-09-02T17:37:07.153Z,64.59350586
2022-09-02T17:38:07.558Z,64.69116211
2022-09-02T17:39:07.997Z,64.69116211
2022-09-02T17:40:08.444Z,64.79492188
2022-09-02T17:41:09.510Z,64.39208984
2022-09-02T17:42:09.963Z,64.19067383
2022-09-02T17:43:10.375Z,64.19067383
2022-09-02T17:44:10.777Z,63.79394531
2022-09-02T17:45:11.447Z,64.09301758
2022-09-02T17:46:12.794Z,63.99536133
2022-09-02T17:47:13.162Z,64.02587891
2022-09-02T17:48:35.728Z,63.62304688
2022-09-02T17:49:45.191Z,63.12255859
2022-09-02T17:50:46.527Z,63.42163086
2022-09-02T17:51:46.948Z,63.52539063
2022-09-02T17:52:47.405Z,63.52539063
2022-09-02T17:53:47.801Z,62.92114258
2022-09-02T17:54:48.227Z,62.92114258
2022-09-02T17:55:49.519Z,62.82348633
2022-09-02T17:56:49.964Z,62.82348633
2022-09-02T17:57:50.534Z,62.32299805
2022-09-02T17:58:50.896Z,62.12158203
2022-09-02T17:59:51.167Z,61.82250977
2022-09-02T18:00:51.599Z,61.85302734
2022-09-02T18:01:52.017Z,61.65161133
2022-09-02T18:02:54.555Z,62.15209961
2022-09-02T18:03:53.748Z,62.35351563
2022-09-02T18:04:54.126Z,62.24975586
2022-09-02T18:05:55.242Z,61.65161133
2022-09-02T18:06:55.672Z,61.45019531
2022-09-02T18:07:56.076Z,61.85302734
2022-09-02T18:08:56.495Z,61.95068359
2022-09-02T18:09:57.907Z,62.28027344
2022-09-02T18:10:59.365Z,62.28027344
2022-09-02T18:11:59.889Z,62.3840332
2022-09-02T18:13:00.461Z,62.28027344
2022-09-02T18:14:00.833Z,62.48168945
2022-09-02T18:15:01.804Z,62.48168945
2022-09-02T18:16:02.856Z,62.88452148
2022-09-02T18:17:03.540Z,63.07983398
2022-09-02T18:18:04.012Z,63.21411133
2022-09-02T18:19:04.316Z,63.21411133
2022-09-02T18:20:04.761Z,63.41552734
2022-09-02T18:21:05.279Z,63.61083984
2022-09-02T18:22:06.488Z,63.61083984
2022-09-02T18:23:06.435Z,63.71459961
2022-09-02T18:24:06.842Z,63.81225586
2022-09-02T18:25:07.340Z,64.01367188
2022-09-02T18:26:07.833Z,64.11743164
2022-09-02T18:27:08.373Z,64.31274414
2022-09-02T18:28:08.997Z,64.41650391
2022-09-02T18:29:09.412Z,64.51416016
2022-09-02T18:30:09.812Z,64.81323242
2022-09-02T18:31:10.503Z,65.24658203
2022-09-02T18:32:11.027Z,65.3503418
2022-09-02T18:33:11.812Z,65.5456543
2022-09-02T18:34:12.211Z,66.05224609
2022-09-02T18:35:12.616Z,66.44897461
2022-09-02T18:36:44.824Z,66.65039063
2022-09-02T18:37:44.898Z,66.85180664
2022-09-02T18:38:45.300Z,66.94946289
2022-09-02T18:39:45.742Z,67.15087891
2022-09-02T18:40:46.370Z,67.35229492
2022-09-02T18:41:46.967Z,67.55371094
2022-09-02T18:42:47.541Z,67.65136719
2022-09-02T18:43:48.127Z,67.75512695
2022-09-02T18:44:48.398Z,67.75512695
2022-09-02T18:45:49.649Z,67.98706055
2022-09-02T18:46:50.179Z,68.18847656
2022-09-02T18:47:50.694Z,68.38989258
2022-09-02T18:48:53.530Z,68.58520508
2022-09-02T18:49:51.536Z,68.78662109
2022-09-02T18:50:52.644Z,68.78662109
2022-09-02T18:51:53.249Z,68.78662109
2022-09-02T18:52:53.747Z,68.78662109
2022-09-02T18:53:54.313Z,68.78662109
2022-09-02T18:54:54.583Z,68.89038086
2022-09-02T18:55:56.116Z,69.09179688
2022-09-02T18:56:56.696Z,69.18945313
2022-09-02T18:57:57.333Z,69.62280273
2022-09-02T18:58:57.792Z,69.39086914
2022-09-02T18:59:58.173Z,69.32373047
2022-09-02T19:00:58.913Z,69.28710938
2022-09-02T19:01:59.506Z,69.62280273
2022-09-02T19:02:59.965Z,69.7265625
2022-09-02T19:04:01.259Z,69.7265625
2022-09-02T19:05:01.753Z,69.62280273
2022-09-02T19:06:03.172Z,69.62280273
2022-09-02T19:07:03.760Z,69.62280273
2022-09-02T19:08:04.251Z,69.62280273
2022-09-02T19:09:04.667Z,69.42138672
2022-09-02T19:10:05.055Z,69.42138672
2022-09-02T19:11:05.546Z,69.52514648
2022-09-02T19:12:06.253Z,69.52514648
2022-09-02T19:13:06.890Z,69.62280273
2022-09-02T19:14:07.318Z,69.921875
2022-09-02T19:15:07.667Z,69.82421875
2022-09-02T19:16:09.206Z,69.7265625
2022-09-02T19:17:09.824Z,69.82421875
2022-09-02T19:18:10.388Z,69.921875
2022-09-02T19:19:10.796Z,69.921875
2022-09-02T19:20:11.448Z,69.921875
2022-09-02T19:21:13.293Z,69.42138672
2022-09-02T19:22:44.250Z,69.42138672
2022-09-02T19:23:44.851Z,69.42138672
2022-09-02T19:24:45.317Z,69.09179688
2022-09-02T19:25:45.681Z,69.0246582
2022-09-02T19:26:47.097Z,68.82324219
2022-09-02T19:27:47.690Z,68.92089844
2022-09-02T19:28:48.186Z,68.92089844
2022-09-02T19:29:48.664Z,68.92089844
2022-09-02T19:30:50.071Z,69.12231445
2022-09-02T19:31:50.697Z,69.32373047
2022-09-02T19:32:51.321Z,69.42138672
2022-09-02T19:33:52.063Z,69.42138672
2022-09-02T19:34:52.628Z,69.42138672
2022-09-02T19:35:53.083Z,69.62280273
2022-09-02T19:36:54.529Z,69.62280273
2022-09-02T19:37:55.169Z,69.62280273
2022-09-02T19:38:55.750Z,69.62280273
2022-09-02T19:39:59.447Z,69.62280273
2022-09-02T19:40:56.700Z,69.62280273
2022-09-02T19:41:57.227Z,69.7265625
2022-09-02T19:42:57.833Z,69.62280273
2022-09-02T19:43:58.414Z,69.52514648
2022-09-02T19:44:58.947Z,69.42138672
2022-09-02T19:46:00.206Z,69.42138672
2022-09-02T19:48:08.595Z,69.7265625
2022-09-02T19:49:02.552Z,69.52514648
2022-09-02T19:50:02.993Z,69.32373047
2022-09-02T19:51:03.356Z,69.12231445
2022-09-02T19:52:03.741Z,69.12231445
2022-09-02T19:53:04.368Z,69.12231445
2022-09-02T19:54:04.915Z,69.12231445
2022-09-02T19:55:05.574Z,69.0246582
2022-09-02T19:56:05.857Z,69.2199707
2022-09-02T19:57:06.393Z,69.2199707
2022-09-02T19:58:07.038Z,69.32373047
2022-09-02T19:59:07.658Z,69.12231445
2022-09-02T20:00:08.172Z,69.0246582
2022-09-02T20:01:08.585Z,69.0246582
2022-09-02T20:02:08.991Z,69.2199707
2022-09-02T20:03:09.596Z,69.32373047
2022-09-02T20:04:10.173Z,69.52514648
2022-09-02T20:05:10.721Z,69.7265625
2022-09-02T20:06:12.051Z,69.82421875
2022-09-02T20:07:42.871Z,69.82421875
2022-09-02T20:08:43.556Z,69.82421875
2022-09-02T20:09:44.238Z,69.921875
2022-09-02T20:10:44.706Z,70.02563477
2022-09-02T20:11:45.091Z,70.12329102
2022-09-02T20:12:45.492Z,70.12329102
2022-09-02T20:13:46.158Z,70.32470703
2022-09-02T20:14:46.756Z,70.32470703
2022-09-02T20:15:47.243Z,70.32470703
2022-09-02T20:16:48.337Z,70.32470703
2022-09-02T20:17:48.832Z,70.36132813
2022-09-02T20:18:49.525Z,70.36132813
2022-09-02T20:19:50.085Z,70.36132813
2022-09-02T20:20:51.570Z,70.45898438
2022-09-02T20:21:51.958Z,70.25756836
2022-09-02T20:22:52.394Z,70.36132813
2022-09-02T20:23:53.108Z,70.25756836
2022-09-02T20:24:53.674Z,70.36132813
2022-09-02T20:25:54.235Z,70.45898438
2022-09-02T20:26:54.605Z,70.56274414
2022-09-02T20:27:55.009Z,70.56274414
2022-09-02T20:28:55.613Z,70.66040039
2022-09-02T20:29:56.119Z,70.56274414
2022-09-02T20:30:56.613Z,70.56274414
2022-09-02T20:31:57.070Z,70.56274414
2022-09-02T20:32:57.407Z,70.75805664
2022-09-02T20:33:58.025Z,70.56274414
2022-09-02T20:34:58.684Z,70.66040039
2022-09-02T20:35:59.313Z,70.75805664
2022-09-02T20:37:00.259Z,70.89233398
2022-09-02T20:38:00.624Z,70.99609375
2022-09-02T20:39:01.258Z,71.09375
2022-09-02T20:40:02.012Z,70.89233398
2022-09-02T20:41:02.526Z,70.99609375
2022-09-02T20:42:02.953Z,71.09375
2022-09-02T20:43:03.366Z,71.29516602
2022-09-02T20:44:07.036Z,71.29516602
2022-09-02T20:45:04.558Z,71.29516602
2022-09-02T20:46:05.135Z,71.29516602
2022-09-02T20:47:06.379Z,71.39892578
2022-09-02T20:48:06.804Z,71.39892578
2022-09-02T20:49:07.348Z,71.29516602
2022-09-02T20:50:07.956Z,71.29516602
2022-09-02T20:51:09.272Z,71.29516602
2022-09-02T20:52:09.561Z,71.29516602
2022-09-02T20:53:09.947Z,71.29516602
2022-09-02T20:54:10.528Z,71.39892578
2022-09-02T20:55:11.132Z,71.39892578
2022-09-02T20:56:43.082Z,71.49658203
2022-09-02T20:57:43.460Z,71.49658203
2022-09-02T20:58:43.921Z,71.29516602
2022-09-02T20:59:44.534Z,71.29516602
2022-09-02T21:00:45.157Z,71.39892578
2022-09-02T21:01:45.801Z,71.49658203
2022-09-02T21:02:46.066Z,71.49658203
2022-09-02T21:03:46.475Z,71.39892578
2022-09-02T21:04:47.032Z,71.6003418
2022-09-02T21:05:47.656Z,71.69799805
2022-09-02T21:06:49.089Z,71.7956543
2022-09-02T21:07:49.459Z,71.99707031
2022-09-02T21:08:50.552Z,71.99707031
2022-09-02T21:09:51.070Z,71.7956543
2022-09-02T21:10:51.631Z,71.7956543
2022-09-02T21:11:52.253Z,71.99707031
2022-09-02T21:12:52.689Z,72.10083008
2022-09-02T21:13:53.135Z,71.99707031
2022-09-02T21:14:53.677Z,71.99707031
2022-09-02T21:15:54.354Z,72.10083008
2022-09-02T21:16:55.662Z,72.19848633
2022-09-02T21:17:56.023Z,72.19848633
2022-09-02T21:18:56.427Z,72.19848633
2022-09-02T21:19:56.823Z,72.19848633
2022-09-02T21:20:58.061Z,72.19848633
2022-09-02T21:21:58.490Z,72.30224609
2022-09-02T21:22:58.874Z,72.30224609
2022-09-02T21:23:59.287Z,72.19848633
2022-09-02T21:24:59.722Z,72.39990234
2022-09-02T21:26:00.124Z,72.60131836
2022-09-02T21:27:01.080Z,72.80273438
2022-09-02T21:28:01.471Z,72.70507813
2022-09-02T21:29:01.861Z,72.60131836
2022-09-02T21:30:02.919Z,72.7355957
2022-09-02T21:31:02.757Z,72.7355957
2022-09-02T21:32:03.162Z,72.7355957
2022-09-02T21:33:03.523Z,72.93701172
2022-09-02T21:34:03.927Z,73.04077148
2022-09-02T21:35:04.339Z,73.04077148
2022-09-02T21:36:04.755Z,73.04077148
2022-09-02T21:37:06.080Z,73.04077148
2022-09-02T21:38:06.450Z,72.93701172
2022-09-02T21:39:06.868Z,72.83935547
2022-09-02T21:40:07.266Z,72.93701172
2022-09-02T21:41:07.663Z,72.93701172
2022-09-02T21:42:08.077Z,73.04077148
2022-09-02T21:43:08.481Z,73.04077148
2022-09-02T21:44:08.892Z,72.93701172
2022-09-02T21:45:09.324Z,72.93701172
2022-09-02T21:46:09.912Z,73.13842773
2022-09-02T21:47:11.107Z,73.13842773
2022-09-02T21:48:41.688Z,73.04077148
2022-09-02T21:49:42.103Z,72.7355957
2022-09-02T21:50:42.495Z,72.93701172
2022-09-02T21:51:42.888Z,73.04077148
2022-09-02T21:52:43.303Z,73.2421875
2022-09-02T21:53:43.696Z,73.2421875
2022-09-02T21:54:44.090Z,73.13842773
2022-09-02T21:55:44.495Z,73.04077148
2022-09-02T21:56:44.897Z,73.04077148
2022-09-02T21:57:46.277Z,73.57788086
2022-09-02T21:58:46.646Z,73.98071289
2022-09-02T21:59:47.053Z,74.07836914
2022-09-02T22:00:47.492Z,74.17602539
2022-09-02T22:01:47.939Z,74.17602539
2022-09-02T22:02:48.320Z,74.27978516
2022-09-02T22:03:48.706Z,74.37744141
2022-09-02T22:04:49.109Z,74.37744141
2022-09-02T22:05:49.507Z,74.37744141
2022-09-02T22:06:50.569Z,74.37744141
2022-09-02T22:07:51.041Z,74.37744141
2022-09-02T22:08:52.244Z,74.37744141
2022-09-02T22:09:52.633Z,74.37744141
2022-09-02T22:10:53.127Z,74.37744141
2022-09-02T22:11:53.428Z,74.27978516
2022-09-02T22:12:53.867Z,74.07836914
2022-09-02T22:13:54.251Z,74.17602539
2022-09-02T22:14:54.655Z,74.11499023
2022-09-02T22:15:55.104Z,74.31640625
2022-09-02T22:16:56.064Z,74.31640625
2022-09-02T22:17:56.473Z,74.31640625
2022-09-02T22:18:57.778Z,74.31640625
2022-09-02T22:19:58.181Z,74.27978516
2022-09-02T22:20:58.606Z,74.17602539
2022-09-02T22:21:59.005Z,74.07836914
2022-09-02T22:22:59.460Z,73.98071289
2022-09-02T22:24:00.572Z,74.07836914
2022-09-02T22:25:00.966Z,74.07836914
2022-09-02T22:26:01.461Z,74.07836914
2022-09-02T22:27:02.303Z,74.17602539
2022-09-02T22:28:02.741Z,73.87695313
2022-09-02T22:29:03.778Z,73.87695313
2022-09-02T22:30:04.191Z,74.37744141
2022-09-02T22:31:04.641Z,74.68261719
2022-09-02T22:32:04.962Z,75.28686523
2022-09-02T22:33:05.424Z,76.12304688
2022-09-02T22:34:05.806Z,76.62963867
2022-09-02T22:35:06.232Z,77.13012695
2022-09-02T22:36:06.665Z,77.86865234
2022-09-02T22:37:07.586Z,77.97241211
2022-09-02T22:38:08.045Z,78.27148438
2022-09-02T22:39:08.421Z,78.67431641
2022-09-02T22:40:08.818Z,78.97949219
2022-09-02T22:41:09.411Z,79.1809082
2022-09-02T22:42:09.634Z,78.77807617
2022-09-02T22:43:10.516Z,78.97949219
2022-09-02T22:44:41.076Z,78.97949219
2022-09-02T22:45:41.722Z,79.07714844
2022-09-02T22:46:42.203Z,79.27856445
2022-09-02T22:47:43.272Z,78.94287109
2022-09-02T22:48:43.700Z,79.34570313
2022-09-02T22:49:44.091Z,79.14428711
2022-09-02T22:50:45.071Z,79.24194336
2022-09-02T22:51:45.521Z,79.58374023
2022-09-02T22:52:45.958Z,79.98657227
2022-09-02T22:53:46.356Z,80.48706055
2022-09-02T22:54:46.715Z,80.74951172
2022-09-02T22:55:47.262Z,80.74951172
2022-09-02T22:56:47.522Z,80.45043945
2022-09-02T22:57:48.798Z,80.24902344
2022-09-02T22:58:49.193Z,80.04760742
2022-09-02T22:59:49.590Z,79.84619141
2022-09-02T23:00:50.019Z,80.04760742
2022-09-02T23:01:50.456Z,79.84619141
2022-09-02T23:02:50.784Z,79.6081543
2022-09-02T23:03:51.308Z,79.50439453
2022-09-02T23:04:51.603Z,79.70581055
2022-09-02T23:05:52.000Z,80.01098633
2022-09-02T23:06:52.393Z,79.50439453
2022-09-02T23:07:53.769Z,79.40673828
2022-09-02T23:08:54.227Z,79.50439453
2022-09-02T23:09:58.613Z,80.04760742
2022-09-02T23:10:55.002Z,80.14526367
2022-09-02T23:11:55.409Z,80.21240234
2022-09-02T23:12:56.581Z,80.21240234
2022-09-02T23:13:56.993Z,80.21240234
2022-09-02T23:14:57.378Z,80.31005859
2022-09-02T23:15:57.862Z,80.10864258
2022-09-02T23:16:58.215Z,79.80957031
2022-09-02T23:17:59.277Z,80.01098633
2022-09-02T23:18:59.695Z,80.21240234
2022-09-02T23:20:00.144Z,80.10864258
2022-09-02T23:21:01.080Z,80.41381836
2022-09-02T23:22:01.478Z,80.51147461
2022-09-02T23:23:01.867Z,80.51147461
2022-09-02T23:24:02.297Z,80.31005859
2022-09-02T23:25:02.693Z,80.51147461
2022-09-02T23:26:03.119Z,80.41381836
2022-09-02T23:27:04.081Z,80.21240234
2022-09-02T23:28:04.479Z,79.64477539
2022-09-02T23:29:05.612Z,79.44335938
2022-09-02T23:30:05.997Z,79.34570313
2022-09-02T23:31:06.522Z,79.54101563
2022-09-02T23:32:06.873Z,78.94287109
2022-09-02T23:33:07.256Z,78.94287109
2022-09-02T23:34:07.697Z,79.14428711
2022-09-02T23:35:08.037Z,79.24194336
2022-09-02T23:36:08.435Z,79.64477539
2022-09-02T23:37:08.829Z,79.04052734
2022-09-02T23:38:40.186Z,79.54101563
2022-09-02T23:39:40.664Z,79.74243164
2022-09-02T23:40:41.585Z,79.84619141
2022-09-02T23:41:41.965Z,80.04760742
2022-09-02T23:42:42.361Z,79.44335938
2022-09-02T23:43:42.755Z,79.34570313
2022-09-02T23:44:43.208Z,78.83911133
2022-09-02T23:45:43.580Z,78.33862305
2022-09-02T23:46:44.038Z,78.4362793
2022-09-02T23:47:45.087Z,78.83911133
2022-09-02T23:48:45.515Z,78.94287109
2022-09-02T23:49:45.959Z,78.97949219
2022-09-02T23:50:47.105Z,79.47998047
2022-09-02T23:51:47.504Z,79.8828125
2022-09-02T23:52:47.899Z,79.8828125
2022-09-02T23:53:48.299Z,79.68139648
2022-09-02T23:54:50.994Z,79.64477539
2022-09-02T23:55:49.169Z,79.64477539
2022-09-02T23:56:49.616Z,79.8828125
2022-09-02T23:57:50.594Z,79.98657227
2022-09-02T23:58:50.978Z,80.08422852
2022-09-02T23:59:51.403Z,80.08422852
